Time;durP1;ratioP1;P1;durP2;ratioP2;P2;SDS_P1;SDS_P2;PMS_P1;PMS_P2;Temp;Humidity;BMP_temperature;BMP_pressure;BME280_temperature;BME280_humidity;BME280_pressure;Samples;Min_cycle;Max_cycle;Signal;HPM_P1;HPM_P2
2022/09/24 00:02:12;;;;;;;11.47;4.27;;;;;;;10.89;95.60;100910.19;5091260;28;20488;-70
2022/09/24 00:04:39;;;;;;;8.13;4.27;;;;;;;10.87;94.49;100912.38;5094016;28;20463;-68
2022/09/24 00:07:05;;;;;;;6.33;3.50;;;;;;;10.76;95.00;100922.59;5093456;28;20456;-69
2022/09/24 00:09:32;;;;;;;6.13;3.20;;;;;;;10.69;96.36;100914.00;5092927;28;20460;-68
2022/09/24 00:12:01;;;;;;;6.87;3.27;;;;;;;10.71;96.84;100906.38;5090065;28;20480;-70
2022/09/24 00:14:28;;;;;;;8.77;4.30;;;;;;;10.74;97.47;100905.78;5076726;28;20454;-68
2022/09/24 00:16:54;;;;;;;7.20;4.03;;;;;;;10.73;98.17;100901.47;5087369;28;20516;-68
2022/09/24 00:19:21;;;;;;;7.73;3.37;;;;;;;10.76;98.16;100914.44;5092382;28;20900;-68
2022/09/24 00:21:47;;;;;;;6.13;3.30;;;;;;;10.70;99.20;100910.19;5091596;28;20485;-69
2022/09/24 00:26:48;;;;;;;9.03;3.37;;;;;;;10.68;99.81;100908.88;5092758;28;20460;-69
2022/09/24 00:27:04;;;;;;;8.90;3.70;;;;;;;10.62;100.00;100908.13;5090029;28;20445;-69
2022/09/24 00:29:32;;;;;;;9.10;3.87;;;;;;;10.57;100.00;100905.50;5092494;28;20440;-68
2022/09/24 00:31:59;;;;;;;8.30;3.80;;;;;;;10.57;100.00;100906.31;5091928;28;20503;-70
2022/09/24 00:34:26;;;;;;;6.13;3.77;;;;;;;10.56;100.00;100898.47;5092535;28;20479;-70
2022/09/24 00:36:53;;;;;;;6.50;3.57;;;;;;;10.56;100.00;100901.19;5091710;28;20547;-69
2022/09/24 00:39:19;;;;;;;6.47;3.57;;;;;;;10.61;100.00;100893.78;5092696;28;20537;-69
2022/09/24 00:41:47;;;;;;;7.80;4.00;;;;;;;10.59;100.00;100892.50;5092421;28;20484;-70
2022/09/24 00:44:47;;;;;;;5.60;3.30;;;;;;;10.52;100.00;100887.44;5092445;28;20869;-69
2022/09/24 00:47:24;;;;;;;6.73;3.33;;;;;;;10.48;100.00;100885.59;5092632;28;20456;-68
2022/09/24 00:49:51;;;;;;;11.37;3.60;;;;;;;10.57;100.00;100886.53;5092431;28;20437;-70
2022/09/24 00:52:19;;;;;;;8.73;4.20;;;;;;;10.63;100.00;100890.81;5092600;28;20534;-69
2022/09/24 00:54:45;;;;;;;7.50;3.20;;;;;;;10.63;100.00;100877.25;5091952;28;20541;-69
2022/09/24 00:57:13;;;;;;;8.00;4.20;;;;;;;10.68;100.00;100874.47;5091694;28;20476;-69
2022/09/24 00:59:41;;;;;;;7.87;4.00;;;;;;;10.67;100.00;100874.75;5092741;28;20894;-69
2022/09/24 01:02:08;;;;;;;5.87;3.30;;;;;;;10.68;100.00;100873.66;5092049;28;20480;-73
2022/09/24 01:04:36;;;;;;;7.33;3.60;;;;;;;10.64;100.00;100875.34;5092710;28;21336;-74
2022/09/24 01:07:02;;;;;;;6.60;3.43;;;;;;;10.64;100.00;100873.44;5091239;28;20877;-71
2022/09/24 01:09:29;;;;;;;6.23;3.70;;;;;;;10.66;100.00;100871.22;5092797;28;20444;-68
2022/09/24 01:12:03;;;;;;;8.07;3.27;;;;;;;10.70;100.00;100866.84;5091777;28;20491;-70
2022/09/24 01:14:44;;;;;;;6.20;3.70;;;;;;;10.63;100.00;100866.44;5091921;28;20534;-67
2022/09/24 01:17:22;;;;;;;12.87;3.90;;;;;;;10.65;100.00;100864.22;5090284;28;20465;-68
2022/09/24 01:20:15;;;;;;;8.83;4.00;;;;;;;10.67;98.75;100861.19;5091063;28;20816;-68
2022/09/24 01:22:57;;;;;;;6.20;3.23;;;;;;;10.58;98.04;100853.75;5091115;28;21010;-69
2022/09/24 01:25:31;;;;;;;7.57;4.13;;;;;;;10.51;97.41;100860.66;5091517;28;20555;-68
2022/09/24 01:28:14;;;;;;;6.73;3.30;;;;;;;10.51;96.41;100861.44;5081041;28;20448;-69
2022/09/24 01:30:42;;;;;;;6.00;2.90;;;;;;;10.49;96.70;100855.53;5090893;28;20456;-68
2022/09/24 01:33:13;;;;;;;9.97;3.63;;;;;;;10.47;97.14;100854.19;5091721;28;20541;-68
2022/09/24 01:35:43;;;;;;;6.77;3.47;;;;;;;10.57;97.59;100848.63;5092615;28;20437;-68
2022/09/24 01:38:15;;;;;;;7.10;3.73;;;;;;;10.58;98.55;100847.53;5090888;28;20476;-68
2022/09/24 01:40:42;;;;;;;6.83;3.60;;;;;;;10.64;99.61;100843.66;5093675;28;20471;-68
2022/09/24 01:43:10;;;;;;;6.83;3.30;;;;;;;10.70;99.99;100847.88;5095192;28;20503;-68
2022/09/24 01:45:39;;;;;;;8.37;3.43;;;;;;;10.77;100.00;100842.09;5095534;28;21014;-68
2022/09/24 01:48:07;;;;;;;7.00;3.73;;;;;;;10.78;100.00;100835.56;5093185;28;20513;-70
2022/09/24 01:50:40;;;;;;;7.87;3.30;;;;;;;10.89;100.00;100838.91;5094857;28;20468;-70
2022/09/24 01:53:11;;;;;;;10.03;4.40;;;;;;;10.87;100.00;100839.22;5082905;28;20483;-68
2022/09/24 01:55:46;;;;;;;7.83;3.60;;;;;;;10.84;100.00;100835.19;5095927;28;20877;-68
2022/09/24 01:58:18;;;;;;;8.60;3.97;;;;;;;10.88;100.00;100834.59;5096403;28;20874;-69
2022/09/24 02:00:49;;;;;;;6.90;3.80;;;;;;;10.88;100.00;100831.88;5095209;28;20452;-70
2022/09/24 02:03:22;;;;;;;6.90;3.77;;;;;;;10.97;100.00;100832.81;5097407;28;20456;-68
2022/09/24 02:05:53;;;;;;;8.23;3.80;;;;;;;11.06;100.00;100831.03;5095196;28;20460;-68
2022/09/24 02:08:22;;;;;;;7.60;3.50;;;;;;;11.06;100.00;100825.59;5095987;28;20432;-68
2022/09/24 02:10:54;;;;;;;10.13;4.50;;;;;;;11.06;100.00;100825.59;5092439;28;20456;-68
2022/09/24 02:13:24;;;;;;;6.40;3.30;;;;;;;11.09;100.00;100827.72;5081645;28;20464;-68
2022/09/24 02:15:53;;;;;;;8.57;4.10;;;;;;;11.08;100.00;100836.97;5095216;28;20555;-70
2022/09/24 02:18:27;;;;;;;5.50;3.37;;;;;;;11.09;100.00;100836.66;5093265;28;20492;-69
2022/09/24 02:20:56;;;;;;;6.57;3.70;;;;;;;11.10;99.83;100832.84;5095025;28;20452;-69
2022/09/24 02:23:26;;;;;;;6.67;3.60;;;;;;;11.09;97.55;100833.16;5095992;28;20462;-68
2022/09/24 02:25:56;;;;;;;8.47;4.13;;;;;;;11.04;96.27;100828.63;5095072;28;20456;-68
2022/09/24 02:28:26;;;;;;;11.10;3.73;;;;;;;10.99;96.49;100828.72;5094734;28;20461;-70
2022/09/24 02:30:57;;;;;;;9.53;3.93;;;;;;;10.99;98.92;100819.78;5107278;28;20447;-73
2022/09/24 02:36:11;;;;;;;8.20;3.67;;;;;;;11.04;99.18;100823.19;5087100;28;20967;-68
2022/09/24 02:38:38;;;;;;;9.23;3.87;;;;;;;11.10;99.60;100822.00;5095887;28;20476;-69
2022/09/24 02:41:07;;;;;;;7.00;3.90;;;;;;;11.14;99.93;100826.81;5095656;28;20469;-68
2022/09/24 02:43:34;;;;;;;6.50;3.83;;;;;;;11.12;100.00;100824.44;5095761;28;20455;-69
2022/09/24 02:46:01;;;;;;;7.50;3.63;;;;;;;11.16;100.00;100820.03;5094730;28;20942;-69
2022/09/24 02:48:28;;;;;;;7.27;4.90;;;;;;;11.19;100.00;100824.81;5095187;28;20945;-68
2022/09/24 02:50:55;;;;;;;7.80;4.17;;;;;;;11.21;100.00;100822.63;5094864;28;20957;-69
2022/09/24 02:53:21;;;;;;;7.97;3.97;;;;;;;11.19;100.00;100819.41;5094384;28;20501;-69
2022/09/24 02:55:48;;;;;;;8.97;3.40;;;;;;;11.26;100.00;100819.81;5095295;28;20439;-68
2022/09/24 02:58:14;;;;;;;7.40;3.80;;;;;;;11.29;100.00;100821.94;5095557;28;20479;-68
2022/09/24 03:00:41;;;;;;;6.43;3.60;;;;;;;11.17;100.00;100816.19;5095204;28;20451;-68
2022/09/24 03:03:07;;;;;;;8.00;4.13;;;;;;;11.22;100.00;100818.00;5094842;28;20448;-68
2022/09/24 03:05:35;;;;;;;7.10;3.87;;;;;;;11.25;100.00;100815.50;5094638;28;20498;-69
2022/09/24 03:08:01;;;;;;;8.10;4.37;;;;;;;11.25;100.00;100815.50;5095129;28;20441;-69
2022/09/24 03:10:28;;;;;;;7.80;4.10;;;;;;;11.32;100.00;100813.19;5094430;28;20455;-70
2022/09/24 03:12:55;;;;;;;6.87;3.77;;;;;;;11.29;100.00;100807.59;5095231;28;20965;-69
2022/09/24 03:15:22;;;;;;;8.23;4.60;;;;;;;11.19;100.00;100808.56;5094862;28;20460;-69
2022/09/24 03:17:48;;;;;;;8.17;3.80;;;;;;;11.23;100.00;100815.00;5094953;28;20493;-69
2022/09/24 03:20:15;;;;;;;6.83;3.93;;;;;;;11.23;100.00;100806.84;5094487;28;20956;-69
2022/09/24 03:22:42;;;;;;;8.83;3.90;;;;;;;11.21;100.00;100802.84;5094800;28;20514;-68
2022/09/24 03:25:10;;;;;;;7.00;3.83;;;;;;;11.29;100.00;100808.38;5095005;28;20443;-68
2022/09/24 03:27:36;;;;;;;6.90;4.30;;;;;;;11.25;100.00;100796.53;5093878;28;20480;-69
2022/09/24 03:32:47;;;;;;;8.03;4.53;;;;;;;11.21;100.00;100800.94;5094446;28;20838;-68
2022/09/24 03:35:14;;;;;;;6.43;4.03;;;;;;;11.18;100.00;100806.16;5094834;28;20436;-68
2022/09/24 03:37:41;;;;;;;7.03;4.50;;;;;;;11.18;100.00;100796.09;5094378;28;20934;-73
2022/09/24 03:40:10;;;;;;;9.13;4.60;;;;;;;11.14;100.00;100794.28;5094416;28;20457;-68
2022/09/24 03:42:36;;;;;;;7.40;4.00;;;;;;;11.11;100.00;100796.50;5093259;28;20835;-67
2022/09/24 03:45:03;;;;;;;10.23;4.17;;;;;;;11.12;100.00;100797.31;5094401;28;20502;-68
2022/09/24 03:47:30;;;;;;;6.90;3.80;;;;;;;11.13;100.00;100785.34;5093497;28;20873;-67
2022/09/24 03:49:56;;;;;;;7.27;3.80;;;;;;;11.08;100.00;100799.81;5092329;28;20460;-68
2022/09/24 03:52:23;;;;;;;8.07;4.20;;;;;;;11.11;100.00;100790.25;5091681;28;20855;-66
2022/09/24 03:54:50;;;;;;;11.83;5.07;;;;;;;11.14;100.00;100788.88;5093250;28;20460;-68
2022/09/24 03:57:18;;;;;;;10.90;4.93;;;;;;;11.08;100.00;100790.88;5082832;28;20452;-67
2022/09/24 03:59:44;;;;;;;6.93;3.70;;;;;;;11.07;100.00;100778.44;5094303;28;20510;-67
2022/09/24 04:02:11;;;;;;;6.37;3.60;;;;;;;11.05;100.00;100792.28;5092890;28;20530;-67
2022/09/24 04:04:38;;;;;;;7.80;4.33;;;;;;;11.06;100.00;100785.75;5093637;28;20432;-67
2022/09/24 04:07:05;;;;;;;9.33;4.67;;;;;;;11.05;100.00;100792.28;5094050;28;20537;-68
2022/09/24 04:09:31;;;;;;;8.00;4.00;;;;;;;11.03;100.00;100788.28;5094269;28;20440;-68
2022/09/24 04:11:58;;;;;;;7.83;4.50;;;;;;;10.96;100.00;100785.13;5087048;28;20586;-69
2022/09/24 04:14:26;;;;;;;8.33;4.90;;;;;;;10.98;100.00;100781.03;5091347;28;20495;-68
2022/09/24 04:16:52;;;;;;;7.93;4.37;;;;;;;10.98;100.00;100783.75;5092967;28;20464;-68
2022/09/24 04:19:19;;;;;;;6.70;3.37;;;;;;;11.00;100.00;100781.53;5091705;28;20492;-69
2022/09/24 04:21:45;;;;;;;7.73;4.77;;;;;;;11.01;100.00;100787.75;5088271;28;20484;-69
2022/09/24 04:24:12;;;;;;;9.13;5.00;;;;;;;10.97;100.00;100784.81;5093691;28;20489;-69
2022/09/24 04:26:38;;;;;;;6.67;3.93;;;;;;;11.00;100.00;100786.94;5093083;28;20467;-68
2022/09/24 04:29:05;;;;;;;8.20;4.93;;;;;;;11.01;100.00;100783.13;5093446;28;20443;-68
2022/09/24 04:31:33;;;;;;;10.17;4.80;;;;;;;11.07;100.00;100789.28;5093018;28;20487;-68
2022/09/24 04:33:59;;;;;;;12.17;4.63;;;;;;;11.10;100.00;100784.03;5092026;28;20874;-68
2022/09/24 04:36:26;;;;;;;8.20;4.90;;;;;;;11.10;100.00;100785.94;5092026;28;20460;-70
2022/09/24 04:38:52;;;;;;;8.20;4.60;;;;;;;11.19;100.00;100786.88;5093714;28;20537;-68
2022/09/24 04:41:19;;;;;;;8.27;4.43;;;;;;;11.10;100.00;100781.31;5092793;28;20545;-68
2022/09/24 04:43:46;;;;;;;8.53;4.73;;;;;;;11.13;100.00;100777.22;5092383;28;20456;-68
2022/09/24 04:46:13;;;;;;;8.20;4.30;;;;;;;11.18;100.00;100779.03;5092656;28;20964;-68
2022/09/24 04:48:41;;;;;;;8.47;4.57;;;;;;;11.17;100.00;100780.16;5079760;28;20808;-67
2022/09/24 04:51:08;;;;;;;7.50;4.33;;;;;;;11.17;100.00;100778.25;5092275;28;20479;-69
2022/09/24 04:53:36;;;;;;;10.07;5.10;;;;;;;11.29;100.00;100766.91;5090262;28;20949;-68
2022/09/24 04:56:03;;;;;;;12.10;5.63;;;;;;;11.31;100.00;100773.63;5091249;28;20465;-69
2022/09/24 04:58:30;;;;;;;8.83;4.33;;;;;;;11.35;100.00;100784.69;5092740;28;20574;-68
2022/09/24 05:00:56;;;;;;;9.17;4.73;;;;;;;11.35;100.00;100784.69;5091969;28;20456;-70
2022/09/24 05:03:23;;;;;;;7.43;4.57;;;;;;;11.35;100.00;100774.63;5093323;28;20436;-68
2022/09/24 05:05:50;;;;;;;10.97;4.10;;;;;;;11.35;100.00;100785.47;5092104;28;20471;-69
2022/09/24 05:08:17;;;;;;;6.60;3.83;;;;;;;11.39;100.00;100777.53;5091136;28;20456;-68
2022/09/24 05:10:43;;;;;;;11.27;4.93;;;;;;;11.37;100.00;100777.81;5092051;28;20456;-68
2022/09/24 05:13:10;;;;;;;10.40;5.10;;;;;;;11.36;100.00;100776.22;5092769;28;20444;-67
2022/09/24 05:15:36;;;;;;;9.50;5.10;;;;;;;11.22;100.00;100767.28;5093719;28;20464;-68
2022/09/24 05:18:03;;;;;;;9.73;4.87;;;;;;;11.20;100.00;100777.66;5096414;28;20460;-65
2022/09/24 05:20:29;;;;;;;11.20;5.57;;;;;;;11.23;100.00;100774.31;5091643;28;20487;-68
2022/09/24 05:22:57;;;;;;;12.60;5.03;;;;;;;11.28;100.00;100778.84;5094270;28;20484;-68
2022/09/24 05:25:23;;;;;;;11.03;5.60;;;;;;;11.32;100.00;100791.50;5092439;28;20460;-69
2022/09/24 05:27:50;;;;;;;12.00;5.47;;;;;;;11.33;100.00;100790.41;5095778;28;20456;-68
2022/09/24 05:30:19;;;;;;;9.93;5.23;;;;;;;11.37;100.00;100788.69;5096664;28;20953;-68
2022/09/24 05:32:48;;;;;;;13.30;5.63;;;;;;;11.37;100.00;100788.69;5094082;28;20874;-70
2022/09/24 05:35:15;;;;;;;10.80;5.10;;;;;;;11.34;100.00;100793.91;5095881;28;20456;-69
2022/09/24 05:37:41;;;;;;;9.03;5.77;;;;;;;11.31;100.00;100791.81;5095999;28;20451;-70
2022/09/24 05:43:00;;;;;;;10.77;5.70;;;;;;;11.30;100.00;100782.06;5095917;28;20466;-69
2022/09/24 05:45:26;;;;;;;9.57;4.93;;;;;;;11.34;100.00;100788.50;5096449;28;20425;-69
2022/09/24 05:47:53;;;;;;;16.60;5.43;;;;;;;11.45;100.00;100780.94;5095946;28;20485;-68
2022/09/24 05:50:20;;;;;;;10.40;5.60;;;;;;;11.43;100.00;100791.31;5091139;28;20468;-68
2022/09/24 05:52:46;;;;;;;11.67;5.30;;;;;;;11.36;100.00;100789.00;5095541;28;20480;-68
2022/09/24 05:55:14;;;;;;;13.30;5.77;;;;;;;11.37;100.00;100790.59;5096079;28;20997;-68
2022/09/24 05:57:41;;;;;;;8.97;5.20;;;;;;;11.36;100.00;100792.50;5095801;28;20458;-68
2022/09/24 06:00:08;;;;;;;10.93;5.33;;;;;;;11.39;100.00;100793.81;5095200;28;20881;-72
2022/09/24 06:02:34;;;;;;;9.10;5.07;;;;;;;11.37;100.00;100796.81;5095966;28;20475;-68
2022/09/24 06:05:00;;;;;;;8.47;5.43;;;;;;;11.40;100.00;100802.75;5095969;28;20468;-68
2022/09/24 06:07:27;;;;;;;9.33;5.40;;;;;;;11.45;100.00;100805.38;5096243;28;20448;-69
2022/09/24 06:09:54;;;;;;;11.73;5.33;;;;;;;11.50;100.00;100803.34;5095478;28;20494;-69
2022/09/24 06:12:22;;;;;;;9.60;5.40;;;;;;;11.54;100.00;100798.13;5096068;28;20467;-67
2022/09/24 06:14:48;;;;;;;15.37;5.80;;;;;;;11.53;100.00;100801.94;5094864;28;20452;-69
2022/09/24 06:17:15;;;;;;;8.90;4.33;;;;;;;11.61;100.00;100798.53;5096175;28;20452;-68
2022/09/24 06:19:41;;;;;;;7.97;4.87;;;;;;;11.59;100.00;100798.81;5094214;28;20491;-67
2022/09/24 06:22:08;;;;;;;8.50;5.40;;;;;;;11.63;100.00;100802.53;5095401;28;21011;-68
2022/09/24 06:24:34;;;;;;;10.07;5.87;;;;;;;11.67;100.00;100794.59;5091880;28;20468;-67
2022/09/24 06:27:01;;;;;;;10.20;5.80;;;;;;;11.71;100.00;100798.31;5094565;28;20495;-70
2022/09/24 06:29:28;;;;;;;14.67;6.70;;;;;;;11.76;100.00;100798.22;5088304;28;20452;-68
2022/09/24 06:31:55;;;;;;;12.03;6.17;;;;;;;11.85;100.00;100792.91;5095292;28;20460;-68
2022/09/24 06:34:21;;;;;;;11.63;6.20;;;;;;;11.99;100.00;100790.97;5096053;28;20856;-68
2022/09/24 06:36:48;;;;;;;12.73;6.13;;;;;;;12.04;100.00;100790.88;5095869;28;20543;-68
2022/09/24 06:39:14;;;;;;;11.20;6.10;;;;;;;12.16;100.00;100787.59;5095631;28;21054;-68
2022/09/24 06:41:41;;;;;;;10.70;6.17;;;;;;;12.30;100.00;100782.13;5095512;28;20460;-69
2022/09/24 06:44:07;;;;;;;11.60;6.13;;;;;;;12.40;100.00;100781.91;5095746;28;20471;-68
2022/09/24 06:46:35;;;;;;;14.07;7.47;;;;;;;12.48;100.00;100788.47;5095653;28;20490;-70
2022/09/24 06:49:01;;;;;;;9.93;6.00;;;;;;;12.57;100.00;100786.63;5095485;28;20952;-69
2022/09/24 06:51:28;;;;;;;11.40;6.60;;;;;;;12.67;100.00;100791.84;5095422;28;20472;-72
2022/09/24 06:53:54;;;;;;;10.17;5.90;;;;;;;12.75;100.00;100793.81;5095359;28;20887;-71
2022/09/24 06:56:21;;;;;;;14.80;6.60;;;;;;;12.85;99.12;100785.38;5095283;28;20452;-68
2022/09/24 06:58:47;;;;;;;10.63;6.33;;;;;;;12.94;98.39;100795.50;5095140;28;20436;-68
2022/09/24 07:01:13;;;;;;;10.27;5.83;;;;;;;13.02;97.64;100798.28;5095067;28;20484;-69
2022/09/24 07:03:41;;;;;;;11.43;5.90;;;;;;;13.08;96.88;100801.66;5095281;28;20448;-68
2022/09/24 07:06:08;;;;;;;10.47;5.53;;;;;;;13.14;95.96;100803.91;5095123;28;20820;-69
2022/09/24 07:08:34;;;;;;;12.73;6.80;;;;;;;13.23;95.11;100806.72;5095193;28;20445;-69
2022/09/24 07:11:01;;;;;;;10.47;6.07;;;;;;;13.30;94.59;100812.50;5094938;28;20467;-70
2022/09/24 07:13:27;;;;;;;13.20;6.43;;;;;;;13.41;93.87;100810.31;5095399;28;20444;-67
2022/09/24 07:15:54;;;;;;;9.53;4.57;;;;;;;13.48;93.24;100813.38;5094783;28;20448;-70
2022/09/24 07:18:20;;;;;;;10.13;5.50;;;;;;;13.57;92.94;100818.88;5094851;28;20432;-68
2022/09/24 07:20:52;;;;;;;7.80;5.10;;;;;;;13.64;92.71;100821.94;5095031;28;20490;-68
2022/09/24 07:23:19;;;;;;;13.90;6.70;;;;;;;13.70;92.46;100820.66;5094635;28;20929;-67
2022/09/24 07:25:45;;;;;;;8.70;4.97;;;;;;;13.67;92.04;100821.28;5094482;28;20973;-68
2022/09/24 07:28:14;;;;;;;15.33;6.50;;;;;;;13.69;92.40;100819.06;5093574;28;20510;-67
2022/09/24 07:30:41;;;;;;;9.73;5.93;;;;;;;13.66;92.04;100819.69;5091769;28;20882;-67
2022/09/24 07:33:08;;;;;;;12.33;6.27;;;;;;;13.72;90.38;100826.56;5093374;28;20473;-68
2022/09/24 07:35:37;;;;;;;9.93;4.83;;;;;;;13.72;87.90;100823.84;5093876;28;20514;-68
2022/09/24 07:38:07;;;;;;;12.80;6.07;;;;;;;13.67;86.45;100825.94;5092433;28;20950;-67
2022/09/24 07:40:34;;;;;;;15.63;5.83;;;;;;;13.66;85.10;100825.13;5093529;28;20522;-67
2022/09/24 07:43:01;;;;;;;9.23;5.20;;;;;;;13.68;84.75;100825.63;5093571;28;20471;-71
2022/09/24 07:45:28;;;;;;;9.47;5.00;;;;;;;13.73;85.28;100822.75;5094735;28;20441;-70
2022/09/24 07:48:00;;;;;;;9.40;5.00;;;;;;;13.84;85.74;100829.50;5093231;28;20461;-71
2022/09/24 07:50:27;;;;;;;9.20;5.30;;;;;;;13.92;86.06;100830.66;5093170;28;20914;-71
2022/09/24 07:52:54;;;;;;;7.27;4.20;;;;;;;14.05;86.26;100831.63;5093001;28;20517;-72
2022/09/24 07:55:21;;;;;;;9.43;5.40;;;;;;;14.15;85.95;100828.59;5093990;28;20491;-71
2022/09/24 07:57:49;;;;;;;9.07;5.10;;;;;;;14.27;85.23;100834.22;5093712;28;20440;-69
2022/09/24 08:00:17;;;;;;;8.70;4.40;;;;;;;14.37;84.53;100833.91;5094538;28;20487;-68
2022/09/24 08:02:43;;;;;;;9.70;5.40;;;;;;;14.49;84.36;100835.22;5090935;28;20494;-67
2022/09/24 08:05:10;;;;;;;9.63;5.90;;;;;;;14.53;82.71;100833.47;5094181;28;20441;-67
2022/09/24 08:07:36;;;;;;;13.00;6.10;;;;;;;14.61;82.26;100832.66;5092461;28;20867;-68
2022/09/24 08:10:04;;;;;;;10.37;5.90;;;;;;;14.67;80.53;100841.47;5093311;28;20452;-68
2022/09/24 08:12:31;;;;;;;12.10;5.40;;;;;;;14.69;79.31;100834.56;5092496;28;20495;-68
2022/09/24 08:14:58;;;;;;;10.07;5.43;;;;;;;14.68;78.44;100838.41;5093235;28;20444;-67
2022/09/24 08:17:25;;;;;;;9.40;5.10;;;;;;;14.67;78.36;100839.53;5091853;28;20957;-71
2022/09/24 08:19:55;;;;;;;6.73;4.27;;;;;;;14.74;78.22;100839.88;5092827;28;20541;-67
2022/09/24 08:22:22;;;;;;;9.70;4.90;;;;;;;14.68;76.31;100838.41;5092456;28;20479;-68
2022/09/24 08:24:49;;;;;;;11.47;5.63;;;;;;;14.76;77.59;100834.88;5093495;28;20456;-68
2022/09/24 08:27:16;;;;;;;9.20;4.40;;;;;;;14.85;76.68;100843.84;5091793;28;20464;-67
2022/09/24 08:29:44;;;;;;;10.20;5.67;;;;;;;14.92;76.41;100839.81;5093570;28;20447;-69
2022/09/24 08:32:11;;;;;;;10.20;5.13;;;;;;;14.97;77.00;100837.75;5091458;28;20922;-69
2022/09/24 08:34:39;;;;;;;11.70;5.10;;;;;;;15.05;76.93;100838.81;5082681;28;20444;-68
2022/09/24 08:37:06;;;;;;;10.80;4.53;;;;;;;15.17;77.48;100844.41;5091271;28;20460;-69
2022/09/24 08:39:32;;;;;;;9.87;4.90;;;;;;;15.29;78.24;100835.56;5091012;28;20826;-68
2022/09/24 08:42:02;;;;;;;11.87;5.20;;;;;;;15.41;77.35;100834.88;5092975;28;20539;-71
2022/09/24 08:47:33;;;;;;;7.70;4.30;;;;;;;15.55;77.74;100838.19;5077157;28;20535;-69
2022/09/24 08:50:08;;;;;;;11.37;4.83;;;;;;;15.67;76.59;100843.78;5082061;28;20456;-69
2022/09/24 08:52:57;;;;;;;10.27;4.83;;;;;;;15.74;73.47;100843.25;5091693;28;20480;-71
2022/09/24 08:55:31;;;;;;;7.70;5.10;;;;;;;15.73;72.98;100839.75;5077623;28;20433;-69
2022/09/24 08:58:08;;;;;;;8.33;4.70;;;;;;;15.80;74.17;100842.72;5093179;28;20444;-69
2022/09/24 09:00:42;;;;;;;9.60;4.80;;;;;;;15.90;75.50;100847.03;5093347;28;20464;-68
2022/09/24 09:03:23;;;;;;;7.07;4.30;;;;;;;15.99;74.55;100839.59;5091818;28;20468;-67
2022/09/24 09:05:56;;;;;;;9.50;5.30;;;;;;;16.04;72.85;100839.41;5090046;28;20456;-68
2022/09/24 09:08:34;;;;;;;9.53;4.37;;;;;;;16.12;71.96;100845.94;5082753;28;20456;-68
2022/09/24 09:11:03;;;;;;;9.60;5.40;;;;;;;16.23;71.23;100849.88;5091495;28;20460;-68
2022/09/24 09:13:33;;;;;;;8.10;4.87;;;;;;;16.31;70.90;100848.22;5091743;28;20460;-68
2022/09/24 09:16:06;;;;;;;10.73;5.83;;;;;;;16.40;71.09;100849.75;5089502;28;20509;-69
2022/09/24 09:18:40;;;;;;;9.50;5.00;;;;;;;16.54;72.94;100851.41;5084435;28;20537;-68
2022/09/24 09:21:15;;;;;;;7.60;3.63;;;;;;;16.66;72.44;100851.47;5093146;28;20562;-66
2022/09/24 09:23:47;;;;;;;8.00;3.90;;;;;;;16.74;71.39;100844.34;5093179;28;20450;-68
2022/09/24 09:26:17;;;;;;;8.70;5.63;;;;;;;16.85;70.75;100846.31;5092513;28;20936;-69
2022/09/24 09:28:44;;;;;;;7.50;3.60;;;;;;;16.99;70.17;100839.75;5085399;28;20480;-69
2022/09/24 09:31:25;;;;;;;6.90;4.37;;;;;;;17.10;71.04;100829.97;5092969;28;20493;-68
2022/09/24 09:34:20;;;;;;;9.40;4.47;;;;;;;17.07;69.02;100838.84;5085572;28;20456;-68
2022/09/24 09:37:01;;;;;;;10.90;5.23;;;;;;;17.28;68.17;100838.78;5084203;28;20521;-69
2022/09/24 09:39:36;;;;;;;13.17;4.30;;;;;;;17.38;67.26;100839.13;5084389;28;20460;-70
2022/09/24 09:42:09;;;;;;;8.90;3.80;;;;;;;17.46;67.23;100839.38;5091527;28;20476;-69
2022/09/24 09:44:40;;;;;;;8.50;4.00;;;;;;;17.37;66.20;100831.28;5087572;28;20803;-70
2022/09/24 09:47:16;;;;;;;7.27;3.73;;;;;;;17.35;65.41;100830.81;5093691;28;20455;-70
2022/09/24 09:49:50;;;;;;;7.93;4.67;;;;;;;17.26;66.23;100830.91;5092242;28;20600;-70
2022/09/24 09:52:20;;;;;;;6.40;4.00;;;;;;;17.32;67.77;100840.50;5090624;28;20993;-69
2022/09/24 09:54:47;;;;;;;8.10;4.03;;;;;;;17.31;67.17;100838.09;5090814;28;20480;-71
2022/09/24 09:57:17;;;;;;;8.30;3.93;;;;;;;17.33;66.66;100842.09;5091420;28;20458;-69
2022/09/24 09:59:46;;;;;;;7.50;3.70;;;;;;;17.36;67.12;100835.97;5090836;28;20461;-70
2022/09/24 10:02:22;;;;;;;7.60;3.40;;;;;;;17.41;67.46;100840.41;5094538;28;20471;-69
2022/09/24 10:04:54;;;;;;;6.30;3.40;;;;;;;17.48;68.83;100837.88;5094332;28;20534;-69
2022/09/24 10:07:21;;;;;;;9.80;4.40;;;;;;;17.51;68.03;100839.16;5094307;28;20456;-70
2022/09/24 10:09:58;;;;;;;8.73;4.80;;;;;;;17.39;67.06;100838.00;5093425;28;20456;-71
2022/09/24 10:12:25;;;;;;;6.17;3.63;;;;;;;17.30;66.36;100839.25;5094531;28;20887;-69
2022/09/24 10:14:58;;;;;;;9.40;4.40;;;;;;;17.21;66.74;100838.53;5093333;28;21061;-69
2022/09/24 10:17:29;;;;;;;6.77;3.10;;;;;;;17.09;66.84;100836.59;5092686;28;20878;-70
2022/09/24 10:19:59;;;;;;;6.77;3.47;;;;;;;16.99;66.36;100846.00;5095000;28;20456;-70
2022/09/24 10:22:27;;;;;;;8.83;4.57;;;;;;;16.91;66.72;100846.94;5095041;28;20483;-68
2022/09/24 10:24:55;;;;;;;6.33;3.37;;;;;;;16.82;67.46;100846.19;5094863;28;20609;-70
2022/09/24 10:27:30;;;;;;;8.83;4.00;;;;;;;16.77;68.42;100840.94;5094192;28;20467;-71
2022/09/24 10:32:42;;;;;;;9.43;4.60;;;;;;;16.69;68.13;100849.97;5093473;28;20498;-70
2022/09/24 10:35:23;;;;;;;8.60;4.13;;;;;;;16.71;69.28;100851.25;5095439;28;20444;-69
2022/09/24 10:37:51;;;;;;;8.97;4.17;;;;;;;16.70;66.90;100852.41;5079892;28;20489;-69
2022/09/24 10:40:23;;;;;;;10.90;4.90;;;;;;;16.76;67.99;100844.81;5089269;28;20567;-69
2022/09/24 10:42:55;;;;;;;9.00;4.53;;;;;;;16.79;69.51;100844.94;5095299;28;20484;-70
2022/09/24 10:45:28;;;;;;;7.67;3.63;;;;;;;16.87;71.12;100852.28;5093926;28;20460;-70
2022/09/24 10:48:07;;;;;;;8.67;4.30;;;;;;;16.87;71.59;100844.06;5093767;28;20468;-71
2022/09/24 10:50:43;;;;;;;9.20;3.90;;;;;;;16.89;71.79;100843.72;5094800;28;20961;-70
2022/09/24 10:53:14;;;;;;;7.27;3.63;;;;;;;16.87;71.79;100846.78;5092118;28;20463;-71
2022/09/24 10:55:54;;;;;;;7.00;4.10;;;;;;;16.81;68.52;100841.84;5093741;28;20846;-69
2022/09/24 10:58:34;;;;;;;11.50;3.90;;;;;;;16.76;67.92;100839.34;5092955;28;20588;-71
2022/09/24 11:01:14;;;;;;;7.33;2.93;;;;;;;16.70;69.02;100826.97;5092589;28;20557;-70
2022/09/24 11:04:17;;;;;;;6.57;3.30;;;;;;;16.66;68.27;100829.59;5088080;28;20460;-71
2022/09/24 11:06:57;;;;;;;6.80;3.50;;;;;;;16.65;69.44;100828.00;5094930;28;20524;-69
2022/09/24 11:09:31;;;;;;;6.80;3.53;;;;;;;16.69;70.18;100831.66;5091441;28;20506;-69
2022/09/24 11:12:07;;;;;;;7.30;4.03;;;;;;;16.74;71.66;100831.47;5091715;28;21195;-70
2022/09/24 11:15:03;;;;;;;6.53;3.93;;;;;;;16.86;69.95;100839.69;5086648;28;20440;-68
2022/09/24 11:17:36;;;;;;;7.73;4.10;;;;;;;16.94;66.04;100843.50;5095248;28;20435;-68
2022/09/24 11:20:20;;;;;;;5.60;3.20;;;;;;;17.09;66.36;100836.59;5095069;28;20429;-68
2022/09/24 11:23:06;;;;;;;8.13;4.03;;;;;;;17.26;67.15;100830.09;5095139;28;20464;-67
2022/09/24 11:25:40;;;;;;;14.43;3.83;;;;;;;17.48;67.39;100831.63;5095177;28;20455;-68
2022/09/24 11:28:23;;;;;;;5.70;3.17;;;;;;;17.70;65.30;100833.91;5095116;28;20428;-68
2022/09/24 11:30:58;;;;;;;7.80;4.00;;;;;;;17.78;62.92;100827.53;5095009;28;20421;-68
2022/09/24 11:33:37;;;;;;;7.47;4.17;;;;;;;17.66;62.40;100827.50;5095066;28;20451;-68
2022/09/24 11:36:21;;;;;;;7.47;4.10;;;;;;;17.64;63.54;100835.28;5095203;28;20435;-68
2022/09/24 11:39:05;;;;;;;7.40;3.77;;;;;;;17.65;63.26;100831.38;5095104;28;20443;-67
2022/09/24 11:41:44;;;;;;;6.80;3.70;;;;;;;17.66;64.34;100822.03;5094723;28;20488;-68
2022/09/24 11:44:26;;;;;;;7.63;4.20;;;;;;;17.69;66.31;100832.31;5094459;28;20834;-67
2022/09/24 11:47:05;;;;;;;5.60;2.80;;;;;;;17.76;68.37;100835.31;5094565;28;20448;-68